Terminal Aerodrome Forecast
Issued by NWS

Home | Current Version | Previous Version | Text Only | Print | Product List | Glossary On
Versions: 1 2 3 4 5 6 7 8 9 10 11 12 13 14 15 16 17
949
FTUS43 KILX 271340 AAA
TAFCMI
TAF AMD
KCMI 271340Z 2714/2812 12007KT P6SM SCT003 BKN120
      TEMPO 2714/2716 3SM BR
     FM271600 11009KT 4SM -SHRA BR VCTS SCT006CB OVC060
     FM271800 07008KT 2SM -TSRA BR BKN006CB
     FM272200 04008KT P6SM -SHRA OVC012
     FM280300 02009KT P6SM VCSH OVC025
     FM280800 01008KT P6SM OVC012=

USA.gov is the U.S. government's official web portal to all federal, state and local government web resources and services.